Terminal Aerodrome Forecast
Issued by NWS Cleveland, OH

Home | Current Version | Previous Version | Text Only | Print | Product List | Glossary On
Versions: 1 2 3 4 5 6 7 8 9 10 11 12 13 14 15 16 17 18 19 20 21 22
000
FTUS41 KCLE 290500
TAFCAK
TAF
KCAK 290528Z 2906/3006 18010KT P6SM SCT120 OVC250
     FM291200 15012KT P6SM OVC060
     FM291400 17014G20KT P6SM VCSH OVC045
      TEMPO 2914/2917 5SM -FZRA BR OVC025
     FM291700 19014G20KT 2SM -RA BR OVC007
     FM292000 20011KT 1 1/2SM -SN BR OVC007
     FM292300 25013KT 2SM -SN BR OVC007
     FM300100 28012G21KT 4SM -SN BR OVC007=

USA.gov is the U.S. government's official web portal to all federal, state and local government web resources and services.